SK119 ENKB-EHAM
Flight info
| Callsign | SK119 |
|---|---|
| Flight time | 1h 56m |
| Altitude | 35000 |
| Route | OGDIT DCT OMIMA DCT EEL DCT BLUFA |
| Aircraft | A21N/M-SDE2E3FGHIRWXY/LB1 |
Departure
| Time | 2026-05-08 01:34 |
|---|---|
| Airport | Kristiansund Airport, Kvernberget (ENKB) |
Arrival
| Time | 2026-05-08 03:31 |
|---|---|
| Airport | Amsterdam Airport Schiphol (EHAM) |
| Time | Latitude | Longitude | Altitude | Speed | Heading |
|---|---|---|---|---|---|
| 2026-05-08 01:28 | 63.11350 | 7.82633 | 214 ft | 0 kts | 65° |
| 2026-05-08 01:29 | 63.11349 | 7.82661 | 217 ft | 3 kts | 107° |
| 2026-05-08 01:30 | 63.11332 | 7.82685 | 221 ft | 4 kts | 162° |
| 2026-05-08 01:30 | 63.11298 | 7.82708 | 217 ft | 6 kts | 160° |
| 2026-05-08 01:30 | 63.11251 | 7.82741 | 219 ft | 7 kts | 181° |
| 2026-05-08 01:30 | 63.11213 | 7.82631 | 222 ft | 12 kts | 250° |
| 2026-05-08 01:31 | 63.11182 | 7.82436 | 221 ft | 16 kts | 250° |
| 2026-05-08 01:31 | 63.11149 | 7.82214 | 220 ft | 10 kts | 251° |
| 2026-05-08 01:31 | 63.11123 | 7.82047 | 215 ft | 14 kts | 251° |
| 2026-05-08 01:31 | 63.11090 | 7.81828 | 219 ft | 16 kts | 251° |
| 2026-05-08 01:32 | 63.11050 | 7.81568 | 218 ft | 20 kts | 251° |
| 2026-05-08 01:32 | 63.11001 | 7.81252 | 215 ft | 23 kts | 251° |
| 2026-05-08 01:32 | 63.10971 | 7.81055 | 214 ft | 14 kts | 251° |
| 2026-05-08 01:32 | 63.10941 | 7.80853 | 218 ft | 14 kts | 253° |
| 2026-05-08 01:33 | 63.10926 | 7.80708 | 218 ft | 7 kts | 193° |
| 2026-05-08 01:33 | 63.10922 | 7.80773 | 219 ft | 7 kts | 54° |
| 2026-05-08 01:33 | 63.10938 | 7.80840 | 214 ft | 0 kts | 72° |
| 2026-05-08 01:34 | 63.10958 | 7.80975 | 215 ft | 33 kts | 71° |
| 2026-05-08 01:34 | 63.11104 | 7.81930 | 215 ft | 99 kts | 71° |
| 2026-05-08 01:34 | 63.11395 | 7.83839 | 232 ft | 160 kts | 72° |
| 2026-05-08 01:34 | 63.11752 | 7.86250 | 833 ft | 163 kts | 76° |
| 2026-05-08 01:35 | 63.11926 | 7.88676 | 1640 ft | 161 kts | 87° |
| 2026-05-08 01:35 | 63.12000 | 7.91217 | 2291 ft | 171 kts | 89° |
| 2026-05-08 01:35 | 63.12044 | 7.93936 | 2629 ft | 188 kts | 91° |
| 2026-05-08 01:35 | 63.12090 | 7.96995 | 2865 ft | 211 kts | 88° |
| 2026-05-08 01:36 | 63.12183 | 8.00436 | 3115 ft | 235 kts | 88° |
| 2026-05-08 01:36 | 63.11995 | 8.04057 | 3674 ft | 241 kts | 117° |
| 2026-05-08 01:36 | 63.10904 | 8.06877 | 4150 ft | 250 kts | 148° |
| 2026-05-08 01:36 | 63.09336 | 8.08643 | 4774 ft | 256 kts | 163° |
| 2026-05-08 01:37 | 63.07583 | 8.09257 | 5463 ft | 258 kts | 185° |
| 2026-05-08 01:37 | 63.05860 | 8.08330 | 6264 ft | 256 kts | 208° |
| 2026-05-08 01:37 | 63.04462 | 8.05937 | 7105 ft | 255 kts | 229° |
| 2026-05-08 01:37 | 63.03378 | 8.02812 | 7926 ft | 258 kts | 234° |
| 2026-05-08 01:38 | 63.02358 | 7.99544 | 8735 ft | 261 kts | 235° |
| 2026-05-08 01:38 | 63.01327 | 7.96236 | 9553 ft | 264 kts | 234° |
| 2026-05-08 01:38 | 63.00402 | 7.93302 | 10230 ft | 268 kts | 234° |
| 2026-05-08 01:38 | 62.99302 | 7.89861 | 10706 ft | 284 kts | 233° |
| 2026-05-08 01:39 | 62.98013 | 7.86470 | 11021 ft | 303 kts | 223° |
| 2026-05-08 01:39 | 62.96266 | 7.83637 | 11355 ft | 323 kts | 211° |
| 2026-05-08 01:39 | 62.94204 | 7.81201 | 11681 ft | 342 kts | 208° |
| 2026-05-08 01:39 | 62.92125 | 7.78902 | 12151 ft | 354 kts | 208° |
| 2026-05-08 01:40 | 62.89917 | 7.76473 | 12877 ft | 358 kts | 208° |
| 2026-05-08 01:40 | 62.87686 | 7.74007 | 13674 ft | 360 kts | 209° |
| 2026-05-08 01:40 | 62.85428 | 7.71505 | 14369 ft | 364 kts | 209° |
| 2026-05-08 01:40 | 62.83165 | 7.68993 | 14985 ft | 369 kts | 209° |
| 2026-05-08 01:41 | 62.80858 | 7.66431 | 15593 ft | 373 kts | 209° |
| 2026-05-08 01:41 | 62.78533 | 7.63851 | 16201 ft | 376 kts | 209° |
| 2026-05-08 01:41 | 62.76187 | 7.61252 | 16793 ft | 380 kts | 209° |
| 2026-05-08 01:41 | 62.73807 | 7.58619 | 17362 ft | 384 kts | 210° |
| 2026-05-08 01:42 | 62.71415 | 7.55978 | 17940 ft | 387 kts | 210° |
| 2026-05-08 01:42 | 62.68997 | 7.53312 | 18488 ft | 391 kts | 210° |
| 2026-05-08 01:42 | 62.66564 | 7.50635 | 18992 ft | 393 kts | 210° |
| 2026-05-08 01:42 | 62.64116 | 7.47946 | 19513 ft | 395 kts | 210° |
| 2026-05-08 01:43 | 62.61655 | 7.45248 | 20030 ft | 396 kts | 210° |
| 2026-05-08 01:43 | 62.59193 | 7.42554 | 20593 ft | 398 kts | 210° |
| 2026-05-08 01:43 | 62.56742 | 7.39876 | 21084 ft | 400 kts | 210° |
| 2026-05-08 01:43 | 62.54221 | 7.37125 | 21603 ft | 402 kts | 211° |
| 2026-05-08 01:44 | 62.51712 | 7.34394 | 22058 ft | 404 kts | 210° |
| 2026-05-08 01:44 | 62.49225 | 7.31695 | 22574 ft | 405 kts | 210° |
| 2026-05-08 01:44 | 62.46869 | 7.29142 | 23068 ft | 407 kts | 210° |
| 2026-05-08 01:44 | 62.44301 | 7.26371 | 23555 ft | 409 kts | 210° |
| 2026-05-08 01:45 | 62.41781 | 7.23651 | 23946 ft | 411 kts | 210° |
| 2026-05-08 01:45 | 62.39207 | 7.20874 | 24311 ft | 414 kts | 211° |
| 2026-05-08 01:45 | 62.36619 | 7.18087 | 24678 ft | 416 kts | 211° |
| 2026-05-08 01:45 | 62.34027 | 7.15301 | 24996 ft | 418 kts | 210° |
| 2026-05-08 01:46 | 62.31421 | 7.12502 | 25325 ft | 420 kts | 210° |
| 2026-05-08 01:46 | 62.28796 | 7.09692 | 25700 ft | 421 kts | 210° |
| 2026-05-08 01:46 | 62.26183 | 7.06907 | 26167 ft | 419 kts | 210° |
| 2026-05-08 01:46 | 62.23581 | 7.04133 | 26690 ft | 417 kts | 210° |
| 2026-05-08 01:47 | 62.20987 | 7.01376 | 27193 ft | 414 kts | 211° |
| 2026-05-08 01:47 | 62.18412 | 6.98664 | 27572 ft | 411 kts | 211° |
| 2026-05-08 01:47 | 62.15853 | 6.95954 | 27873 ft | 412 kts | 211° |
| 2026-05-08 01:48 | 62.10718 | 6.90522 | 28616 ft | 409 kts | 211° |
| 2026-05-08 01:48 | 62.08201 | 6.87870 | 28982 ft | 408 kts | 211° |
| 2026-05-08 01:48 | 62.05659 | 6.85199 | 29318 ft | 408 kts | 211° |
| 2026-05-08 01:48 | 62.03087 | 6.82499 | 29700 ft | 406 kts | 211° |
| 2026-05-08 01:49 | 62.00573 | 6.79869 | 30067 ft | 406 kts | 210° |
| 2026-05-08 01:49 | 61.98048 | 6.77234 | 30401 ft | 404 kts | 211° |
| 2026-05-08 01:49 | 61.95524 | 6.74598 | 30734 ft | 402 kts | 211° |
| 2026-05-08 01:49 | 61.93023 | 6.71990 | 31050 ft | 400 kts | 211° |
| 2026-05-08 01:50 | 61.90526 | 6.69391 | 31366 ft | 400 kts | 211° |
| 2026-05-08 01:50 | 61.88024 | 6.66802 | 31633 ft | 399 kts | 210° |
| 2026-05-08 01:50 | 61.85603 | 6.64629 | 31881 ft | 401 kts | 204° |
| 2026-05-08 01:50 | 61.82899 | 6.63031 | 32165 ft | 406 kts | 197° |
| 2026-05-08 01:51 | 61.80078 | 6.62296 | 32385 ft | 412 kts | 189° |
| 2026-05-08 01:51 | 61.77210 | 6.62090 | 32656 ft | 413 kts | 188° |
| 2026-05-08 01:51 | 61.74334 | 6.62069 | 32855 ft | 414 kts | 186° |
| 2026-05-08 01:51 | 61.71446 | 6.62127 | 33083 ft | 415 kts | 186° |
| 2026-05-08 01:52 | 61.68564 | 6.62201 | 33334 ft | 413 kts | 186° |
| 2026-05-08 01:52 | 61.65693 | 6.62263 | 33572 ft | 411 kts | 186° |
| 2026-05-08 01:52 | 61.60947 | 6.62316 | 33803 ft | 411 kts | 186° |
| 2026-05-08 01:53 | 61.57167 | 6.62323 | 33956 ft | 411 kts | 186° |
| 2026-05-08 01:53 | 61.54307 | 6.62319 | 34134 ft | 410 kts | 186° |
| 2026-05-08 01:53 | 61.51466 | 6.62314 | 34313 ft | 410 kts | 186° |
| 2026-05-08 01:53 | 61.48614 | 6.62307 | 34446 ft | 410 kts | 186° |
| 2026-05-08 01:54 | 61.45760 | 6.62299 | 34561 ft | 410 kts | 186° |
| 2026-05-08 01:54 | 61.42908 | 6.62293 | 34682 ft | 411 kts | 186° |
| 2026-05-08 01:54 | 61.38112 | 6.62286 | 34830 ft | 412 kts | 186° |
| 2026-05-08 01:55 | 61.34306 | 6.62279 | 34972 ft | 412 kts | 186° |
| 2026-05-08 01:55 | 61.32412 | 6.62277 | 35039 ft | 412 kts | 186° |
| 2026-05-08 01:55 | 61.25693 | 6.62266 | 35101 ft | 414 kts | 186° |
| 2026-05-08 01:56 | 61.20905 | 6.62261 | 35103 ft | 413 kts | 186° |
| 2026-05-08 01:56 | 61.15157 | 6.62255 | 35105 ft | 413 kts | 185° |
| 2026-05-08 01:57 | 61.09405 | 6.62248 | 35106 ft | 413 kts | 185° |
| 2026-05-08 01:57 | 61.03654 | 6.62240 | 35101 ft | 413 kts | 185° |
| 2026-05-08 01:58 | 60.97901 | 6.62232 | 35108 ft | 413 kts | 185° |
| 2026-05-08 01:58 | 60.92144 | 6.62224 | 35114 ft | 413 kts | 185° |
| 2026-05-08 01:59 | 60.86397 | 6.62216 | 35102 ft | 413 kts | 185° |
| 2026-05-08 01:59 | 60.80650 | 6.62208 | 35118 ft | 413 kts | 185° |
| 2026-05-08 02:00 | 60.74939 | 6.62201 | 35117 ft | 413 kts | 185° |
| 2026-05-08 02:00 | 60.69195 | 6.62193 | 35121 ft | 413 kts | 185° |
| 2026-05-08 02:01 | 60.63444 | 6.62185 | 35125 ft | 413 kts | 185° |
| 2026-05-08 02:01 | 60.57700 | 6.62179 | 35104 ft | 413 kts | 184° |
| 2026-05-08 02:02 | 60.51949 | 6.62172 | 35124 ft | 413 kts | 184° |
| 2026-05-08 02:02 | 60.46187 | 6.62163 | 35128 ft | 414 kts | 184° |
| 2026-05-08 02:03 | 60.40599 | 6.62154 | 35125 ft | 413 kts | 185° |
| 2026-05-08 02:03 | 60.34852 | 6.62128 | 35128 ft | 413 kts | 185° |
| 2026-05-08 02:04 | 60.29103 | 6.62107 | 35109 ft | 413 kts | 184° |
| 2026-05-08 02:04 | 60.23340 | 6.62094 | 35139 ft | 414 kts | 184° |
| 2026-05-08 02:05 | 60.17579 | 6.62088 | 35139 ft | 414 kts | 184° |
| 2026-05-08 02:05 | 60.11816 | 6.62083 | 35142 ft | 414 kts | 184° |
| 2026-05-08 02:06 | 60.06049 | 6.62077 | 35146 ft | 414 kts | 184° |
| 2026-05-08 02:06 | 60.00293 | 6.62069 | 35126 ft | 414 kts | 184° |
| 2026-05-08 02:07 | 59.94540 | 6.62061 | 35152 ft | 416 kts | 184° |
| 2026-05-08 02:07 | 59.88754 | 6.62054 | 35154 ft | 416 kts | 184° |
| 2026-05-08 02:08 | 59.82969 | 6.62047 | 35157 ft | 416 kts | 184° |
| 2026-05-08 02:08 | 59.77180 | 6.62041 | 35162 ft | 416 kts | 184° |
| 2026-05-08 02:09 | 59.71400 | 6.62035 | 35143 ft | 416 kts | 183° |
| 2026-05-08 02:09 | 59.65610 | 6.62027 | 35161 ft | 416 kts | 183° |
| 2026-05-08 02:10 | 59.59822 | 6.62019 | 35164 ft | 416 kts | 183° |
| 2026-05-08 02:10 | 59.54038 | 6.62012 | 35164 ft | 416 kts | 183° |
| 2026-05-08 02:11 | 59.48249 | 6.62005 | 35164 ft | 416 kts | 183° |
| 2026-05-08 02:11 | 59.42488 | 6.61998 | 35155 ft | 416 kts | 183° |
| 2026-05-08 02:12 | 59.36667 | 6.61991 | 35162 ft | 415 kts | 183° |
| 2026-05-08 02:12 | 59.30922 | 6.61984 | 35165 ft | 415 kts | 183° |
| 2026-05-08 02:13 | 59.25140 | 6.61979 | 35165 ft | 415 kts | 183° |
| 2026-05-08 02:13 | 59.19362 | 6.61972 | 35169 ft | 415 kts | 183° |
| 2026-05-08 02:14 | 59.13576 | 6.61964 | 35167 ft | 415 kts | 182° |
| 2026-05-08 02:14 | 59.07783 | 6.61956 | 35170 ft | 415 kts | 182° |
| 2026-05-08 02:15 | 59.02042 | 6.61949 | 35167 ft | 416 kts | 182° |
| 2026-05-08 02:15 | 58.96253 | 6.61942 | 35195 ft | 415 kts | 182° |
| 2026-05-08 02:16 | 58.90467 | 6.61935 | 35185 ft | 415 kts | 182° |
| 2026-05-08 02:16 | 58.84685 | 6.61927 | 35189 ft | 415 kts | 182° |
| 2026-05-08 02:17 | 58.78891 | 6.61918 | 35190 ft | 416 kts | 182° |
| 2026-05-08 02:17 | 58.73136 | 6.61910 | 35192 ft | 416 kts | 182° |
| 2026-05-08 02:18 | 58.67348 | 6.61903 | 35189 ft | 416 kts | 182° |
| 2026-05-08 02:18 | 58.61563 | 6.61898 | 35193 ft | 416 kts | 182° |
| 2026-05-08 02:19 | 58.55768 | 6.61891 | 35188 ft | 416 kts | 182° |
| 2026-05-08 02:19 | 58.49974 | 6.61883 | 35184 ft | 416 kts | 182° |
| 2026-05-08 02:20 | 58.44188 | 6.61876 | 35192 ft | 416 kts | 182° |
| 2026-05-08 02:20 | 58.38397 | 6.61870 | 35176 ft | 416 kts | 182° |
| 2026-05-08 02:21 | 58.32610 | 6.61863 | 35189 ft | 416 kts | 182° |
| 2026-05-08 02:21 | 58.26855 | 6.61856 | 35177 ft | 416 kts | 181° |
| 2026-05-08 02:22 | 58.21023 | 6.61850 | 35177 ft | 416 kts | 181° |
| 2026-05-08 02:22 | 58.15266 | 6.61844 | 35171 ft | 416 kts | 181° |
| 2026-05-08 02:23 | 58.09469 | 6.61838 | 35175 ft | 416 kts | 181° |
| 2026-05-08 02:23 | 58.03661 | 6.61831 | 35167 ft | 416 kts | 181° |
| 2026-05-08 02:24 | 57.97890 | 6.61824 | 35178 ft | 417 kts | 181° |
| 2026-05-08 02:24 | 57.92085 | 6.61818 | 35173 ft | 417 kts | 181° |
| 2026-05-08 02:25 | 57.86283 | 6.61812 | 35173 ft | 417 kts | 181° |
| 2026-05-08 02:25 | 57.80468 | 6.61805 | 35173 ft | 417 kts | 181° |
| 2026-05-08 02:26 | 57.74670 | 6.61799 | 35171 ft | 417 kts | 181° |
| 2026-05-08 02:26 | 57.68846 | 6.61792 | 35175 ft | 418 kts | 181° |
| 2026-05-08 02:27 | 57.63034 | 6.61786 | 35174 ft | 418 kts | 181° |
| 2026-05-08 02:27 | 57.57217 | 6.61780 | 35172 ft | 418 kts | 181° |
| 2026-05-08 02:28 | 57.51395 | 6.61774 | 35167 ft | 418 kts | 181° |
| 2026-05-08 02:28 | 57.45555 | 6.61766 | 35179 ft | 421 kts | 180° |
| 2026-05-08 02:29 | 57.39683 | 6.61760 | 35178 ft | 422 kts | 180° |
| 2026-05-08 02:29 | 57.33841 | 6.61754 | 35179 ft | 422 kts | 180° |
| 2026-05-08 02:30 | 57.27972 | 6.61748 | 35181 ft | 422 kts | 180° |
| 2026-05-08 02:30 | 57.22096 | 6.61742 | 35182 ft | 422 kts | 180° |
| 2026-05-08 02:31 | 57.16218 | 6.61736 | 35181 ft | 422 kts | 180° |
| 2026-05-08 02:31 | 57.10338 | 6.61730 | 35181 ft | 422 kts | 180° |
| 2026-05-08 02:32 | 57.04456 | 6.61724 | 35184 ft | 422 kts | 180° |
| 2026-05-08 02:32 | 56.98582 | 6.61717 | 35184 ft | 422 kts | 180° |
| 2026-05-08 02:33 | 56.92735 | 6.61711 | 35185 ft | 422 kts | 180° |
| 2026-05-08 02:33 | 56.86827 | 6.61704 | 35187 ft | 422 kts | 180° |
| 2026-05-08 02:34 | 56.80938 | 6.61699 | 35184 ft | 423 kts | 180° |
| 2026-05-08 02:34 | 56.75094 | 6.61693 | 35187 ft | 423 kts | 180° |
| 2026-05-08 02:35 | 56.69213 | 6.61687 | 35187 ft | 422 kts | 180° |
| 2026-05-08 02:35 | 56.63328 | 6.61680 | 35187 ft | 423 kts | 179° |
| 2026-05-08 02:36 | 56.57440 | 6.61674 | 35187 ft | 423 kts | 179° |
| 2026-05-08 02:36 | 56.51553 | 6.61668 | 35187 ft | 423 kts | 179° |
| 2026-05-08 02:37 | 56.45655 | 6.61662 | 35187 ft | 423 kts | 179° |
| 2026-05-08 02:37 | 56.39802 | 6.61656 | 35186 ft | 423 kts | 179° |
| 2026-05-08 02:38 | 56.33924 | 6.61650 | 35187 ft | 423 kts | 179° |
| 2026-05-08 02:38 | 56.28034 | 6.61644 | 35187 ft | 423 kts | 179° |
| 2026-05-08 02:39 | 56.22152 | 6.61638 | 35181 ft | 423 kts | 179° |
| 2026-05-08 02:39 | 56.16259 | 6.61632 | 35181 ft | 423 kts | 179° |
| 2026-05-08 02:40 | 56.10410 | 6.61626 | 35180 ft | 423 kts | 179° |
| 2026-05-08 02:40 | 56.04478 | 6.61620 | 35184 ft | 424 kts | 179° |
| 2026-05-08 02:41 | 55.98624 | 6.61614 | 35184 ft | 424 kts | 179° |
| 2026-05-08 02:41 | 55.92725 | 6.61608 | 35184 ft | 424 kts | 179° |
| 2026-05-08 02:42 | 55.86822 | 6.61603 | 35184 ft | 424 kts | 179° |
| 2026-05-08 02:42 | 55.81886 | 6.61598 | 35184 ft | 424 kts | 179° |
| 2026-05-08 02:43 | 55.76027 | 6.61592 | 35181 ft | 424 kts | 179° |
| 2026-05-08 02:43 | 55.70145 | 6.61586 | 35181 ft | 424 kts | 179° |
| 2026-05-08 02:44 | 55.65239 | 6.61581 | 35181 ft | 424 kts | 179° |
| 2026-05-08 02:44 | 55.59342 | 6.61575 | 35184 ft | 424 kts | 179° |
| 2026-05-08 02:45 | 55.53441 | 6.61569 | 35181 ft | 424 kts | 179° |
| 2026-05-08 02:45 | 55.47548 | 6.61564 | 35179 ft | 423 kts | 179° |
| 2026-05-08 02:46 | 55.41652 | 6.61558 | 35177 ft | 423 kts | 179° |
| 2026-05-08 02:46 | 55.35755 | 6.61552 | 35176 ft | 423 kts | 179° |
| 2026-05-08 02:47 | 55.29851 | 6.61546 | 35176 ft | 424 kts | 178° |
| 2026-05-08 02:47 | 55.23990 | 6.61541 | 35175 ft | 424 kts | 178° |
| 2026-05-08 02:48 | 55.18080 | 6.61536 | 35177 ft | 425 kts | 178° |
| 2026-05-08 02:48 | 55.12154 | 6.61530 | 35177 ft | 426 kts | 178° |
| 2026-05-08 02:49 | 55.06216 | 6.61524 | 35173 ft | 426 kts | 178° |
| 2026-05-08 02:49 | 55.00279 | 6.61522 | 35169 ft | 426 kts | 178° |
| 2026-05-08 02:50 | 54.94339 | 6.61642 | 35168 ft | 426 kts | 177° |
| 2026-05-08 02:50 | 54.88406 | 6.61834 | 35166 ft | 426 kts | 177° |
| 2026-05-08 02:51 | 54.82517 | 6.62023 | 35167 ft | 426 kts | 178° |
| 2026-05-08 02:51 | 54.76582 | 6.62203 | 35163 ft | 427 kts | 178° |
| 2026-05-08 02:52 | 54.70624 | 6.62375 | 35163 ft | 428 kts | 178° |
| 2026-05-08 02:52 | 54.64669 | 6.62545 | 35162 ft | 428 kts | 178° |
| 2026-05-08 02:53 | 54.58709 | 6.62716 | 35159 ft | 428 kts | 178° |
| 2026-05-08 02:53 | 54.52784 | 6.62888 | 35158 ft | 429 kts | 179° |
| 2026-05-08 02:54 | 54.46800 | 6.63059 | 35157 ft | 431 kts | 179° |
| 2026-05-08 02:54 | 54.40810 | 6.63229 | 35157 ft | 431 kts | 179° |
| 2026-05-08 02:55 | 54.31812 | 6.63484 | 35157 ft | 431 kts | 179° |
| 2026-05-08 02:56 | 54.25806 | 6.63657 | 35156 ft | 432 kts | 179° |
| 2026-05-08 02:56 | 54.19783 | 6.63830 | 35154 ft | 433 kts | 179° |
| 2026-05-08 02:57 | 54.13756 | 6.64000 | 35152 ft | 433 kts | 179° |
| 2026-05-08 02:57 | 54.07773 | 6.64168 | 35151 ft | 433 kts | 179° |
| 2026-05-08 02:58 | 54.01747 | 6.64337 | 35151 ft | 433 kts | 180° |
| 2026-05-08 02:58 | 53.95712 | 6.64505 | 35146 ft | 434 kts | 180° |
| 2026-05-08 02:59 | 53.89677 | 6.64673 | 35146 ft | 434 kts | 180° |
| 2026-05-08 02:59 | 53.83666 | 6.64840 | 35141 ft | 434 kts | 180° |
| 2026-05-08 03:00 | 53.77620 | 6.65008 | 35138 ft | 434 kts | 180° |
| 2026-05-08 03:00 | 53.71569 | 6.65174 | 35137 ft | 434 kts | 180° |
| 2026-05-08 03:01 | 53.65525 | 6.65340 | 35135 ft | 434 kts | 180° |
| 2026-05-08 03:01 | 53.59478 | 6.65506 | 35141 ft | 435 kts | 180° |
| 2026-05-08 03:02 | 53.53467 | 6.65671 | 35130 ft | 435 kts | 181° |
| 2026-05-08 03:02 | 53.47407 | 6.65836 | 35135 ft | 435 kts | 181° |
| 2026-05-08 03:03 | 53.41340 | 6.66001 | 35128 ft | 436 kts | 181° |
| 2026-05-08 03:03 | 53.38298 | 6.66083 | 34865 ft | 437 kts | 181° |
| 2026-05-08 03:03 | 53.35266 | 6.66165 | 34254 ft | 438 kts | 181° |
| 2026-05-08 03:03 | 53.32219 | 6.66248 | 33428 ft | 439 kts | 181° |
| 2026-05-08 03:04 | 53.29177 | 6.66329 | 32690 ft | 438 kts | 181° |
| 2026-05-08 03:04 | 53.26121 | 6.66412 | 31984 ft | 438 kts | 181° |
| 2026-05-08 03:04 | 53.23086 | 6.66494 | 31234 ft | 439 kts | 181° |
| 2026-05-08 03:04 | 53.20032 | 6.66447 | 30493 ft | 438 kts | 186° |
| 2026-05-08 03:05 | 53.17040 | 6.65690 | 29694 ft | 437 kts | 195° |
| 2026-05-08 03:05 | 53.14187 | 6.64058 | 28858 ft | 435 kts | 206° |
| 2026-05-08 03:05 | 53.11534 | 6.61681 | 28091 ft | 433 kts | 211° |
| 2026-05-08 03:05 | 53.08955 | 6.59090 | 27269 ft | 432 kts | 212° |
| 2026-05-08 03:06 | 53.06392 | 6.56465 | 26420 ft | 432 kts | 212° |
| 2026-05-08 03:06 | 53.03831 | 6.53841 | 25567 ft | 433 kts | 212° |
| 2026-05-08 03:06 | 53.01264 | 6.51219 | 24690 ft | 435 kts | 212° |
| 2026-05-08 03:06 | 52.98709 | 6.48617 | 23877 ft | 436 kts | 212° |
| 2026-05-08 03:07 | 52.96141 | 6.46008 | 23183 ft | 431 kts | 212° |
| 2026-05-08 03:07 | 52.93593 | 6.43424 | 22520 ft | 425 kts | 212° |
| 2026-05-08 03:07 | 52.91087 | 6.40888 | 21884 ft | 419 kts | 212° |
| 2026-05-08 03:07 | 52.88615 | 6.38389 | 21247 ft | 414 kts | 212° |
| 2026-05-08 03:08 | 52.86181 | 6.35927 | 20624 ft | 409 kts | 213° |
| 2026-05-08 03:08 | 52.83902 | 6.33144 | 20005 ft | 405 kts | 224° |
| 2026-05-08 03:08 | 52.82058 | 6.29678 | 19372 ft | 402 kts | 233° |
| 2026-05-08 03:08 | 52.80440 | 6.25928 | 18738 ft | 399 kts | 236° |
| 2026-05-08 03:09 | 52.78866 | 6.22146 | 18052 ft | 397 kts | 236° |
| 2026-05-08 03:09 | 52.77332 | 6.18458 | 17389 ft | 393 kts | 236° |
| 2026-05-08 03:09 | 52.75789 | 6.14768 | 16795 ft | 389 kts | 236° |
| 2026-05-08 03:09 | 52.74243 | 6.11088 | 16182 ft | 389 kts | 235° |
| 2026-05-08 03:10 | 52.72706 | 6.07444 | 15487 ft | 387 kts | 235° |
| 2026-05-08 03:10 | 52.71168 | 6.03806 | 14683 ft | 387 kts | 235° |
| 2026-05-08 03:10 | 52.69620 | 6.00150 | 13549 ft | 395 kts | 235° |
| 2026-05-08 03:10 | 52.68042 | 5.96433 | 12673 ft | 394 kts | 234° |
| 2026-05-08 03:11 | 52.66494 | 5.92792 | 12091 ft | 385 kts | 234° |
| 2026-05-08 03:11 | 52.64977 | 5.89228 | 11529 ft | 376 kts | 234° |
| 2026-05-08 03:11 | 52.63490 | 5.85740 | 10979 ft | 368 kts | 234° |
| 2026-05-08 03:11 | 52.62029 | 5.82316 | 10440 ft | 361 kts | 234° |
| 2026-05-08 03:12 | 52.60614 | 5.79006 | 10019 ft | 351 kts | 234° |
| 2026-05-08 03:12 | 52.59233 | 5.75779 | 9794 ft | 335 kts | 234° |
| 2026-05-08 03:12 | 52.57931 | 5.72740 | 9662 ft | 317 kts | 234° |
| 2026-05-08 03:12 | 52.56692 | 5.69854 | 9498 ft | 301 kts | 234° |
| 2026-05-08 03:13 | 52.55514 | 5.67111 | 9347 ft | 287 kts | 234° |
| 2026-05-08 03:13 | 52.54378 | 5.64469 | 9225 ft | 280 kts | 234° |
| 2026-05-08 03:13 | 52.53263 | 5.61881 | 9028 ft | 281 kts | 234° |
| 2026-05-08 03:13 | 52.52118 | 5.59225 | 8758 ft | 281 kts | 234° |
| 2026-05-08 03:14 | 52.51021 | 5.56638 | 8609 ft | 279 kts | 236° |
| 2026-05-08 03:14 | 52.49933 | 5.53981 | 8606 ft | 280 kts | 236° |
| 2026-05-08 03:14 | 52.48852 | 5.51321 | 8605 ft | 280 kts | 236° |
| 2026-05-08 03:14 | 52.47773 | 5.48663 | 8606 ft | 280 kts | 236° |
| 2026-05-08 03:15 | 52.46697 | 5.46015 | 8608 ft | 279 kts | 235° |
| 2026-05-08 03:15 | 52.45619 | 5.43366 | 8608 ft | 279 kts | 236° |
| 2026-05-08 03:15 | 52.44540 | 5.40719 | 8608 ft | 279 kts | 235° |
| 2026-05-08 03:15 | 52.43469 | 5.38091 | 8608 ft | 279 kts | 235° |
| 2026-05-08 03:16 | 52.42391 | 5.35449 | 8608 ft | 279 kts | 235° |
| 2026-05-08 03:16 | 52.41312 | 5.32808 | 8527 ft | 278 kts | 235° |
| 2026-05-08 03:16 | 52.40236 | 5.30178 | 8351 ft | 278 kts | 235° |
| 2026-05-08 03:16 | 52.39156 | 5.27543 | 8188 ft | 277 kts | 236° |
| 2026-05-08 03:17 | 52.38086 | 5.24933 | 8017 ft | 277 kts | 235° |
| 2026-05-08 03:17 | 52.37015 | 5.22322 | 7858 ft | 276 kts | 236° |
| 2026-05-08 03:17 | 52.35948 | 5.19724 | 7690 ft | 275 kts | 236° |
| 2026-05-08 03:17 | 52.34894 | 5.17162 | 7532 ft | 274 kts | 236° |
| 2026-05-08 03:18 | 52.33811 | 5.14531 | 7351 ft | 274 kts | 236° |
| 2026-05-08 03:18 | 52.32761 | 5.11982 | 7197 ft | 274 kts | 236° |
| 2026-05-08 03:18 | 52.31694 | 5.09396 | 7036 ft | 274 kts | 235° |
| 2026-05-08 03:18 | 52.30633 | 5.06824 | 6874 ft | 273 kts | 236° |
| 2026-05-08 03:19 | 52.29569 | 5.04250 | 6713 ft | 273 kts | 236° |
| 2026-05-08 03:19 | 52.28517 | 5.01708 | 6555 ft | 272 kts | 236° |
| 2026-05-08 03:19 | 52.27456 | 4.99145 | 6390 ft | 272 kts | 236° |
| 2026-05-08 03:19 | 52.26399 | 4.96595 | 6228 ft | 271 kts | 236° |
| 2026-05-08 03:20 | 52.25341 | 4.94045 | 6073 ft | 271 kts | 236° |
| 2026-05-08 03:20 | 52.24286 | 4.91502 | 5899 ft | 270 kts | 235° |
| 2026-05-08 03:20 | 52.23233 | 4.88968 | 5758 ft | 269 kts | 235° |
| 2026-05-08 03:20 | 52.22183 | 4.86446 | 5594 ft | 269 kts | 235° |
| 2026-05-08 03:21 | 52.21134 | 4.83929 | 5441 ft | 269 kts | 235° |
| 2026-05-08 03:21 | 52.20091 | 4.81427 | 5281 ft | 268 kts | 235° |
| 2026-05-08 03:21 | 52.19041 | 4.78911 | 5124 ft | 268 kts | 235° |
| 2026-05-08 03:21 | 52.17998 | 4.76415 | 4974 ft | 267 kts | 236° |
| 2026-05-08 03:22 | 52.16955 | 4.73922 | 4804 ft | 267 kts | 236° |
| 2026-05-08 03:22 | 52.15910 | 4.71425 | 4647 ft | 266 kts | 235° |
| 2026-05-08 03:22 | 52.14865 | 4.68931 | 4476 ft | 266 kts | 236° |
| 2026-05-08 03:22 | 52.13823 | 4.66446 | 4331 ft | 265 kts | 235° |
| 2026-05-08 03:23 | 52.12787 | 4.63974 | 4173 ft | 264 kts | 236° |
| 2026-05-08 03:23 | 52.11766 | 4.61542 | 4021 ft | 264 kts | 235° |
| 2026-05-08 03:23 | 52.10715 | 4.59045 | 3876 ft | 263 kts | 235° |
| 2026-05-08 03:23 | 52.09682 | 4.56594 | 3706 ft | 263 kts | 235° |
| 2026-05-08 03:24 | 52.08666 | 4.54182 | 3556 ft | 262 kts | 235° |
| 2026-05-08 03:24 | 52.07625 | 4.51708 | 3400 ft | 261 kts | 236° |
| 2026-05-08 03:24 | 52.06841 | 4.49094 | 3252 ft | 260 kts | 256° |
| 2026-05-08 03:24 | 52.06784 | 4.46192 | 3107 ft | 260 kts | 283° |
| 2026-05-08 03:25 | 52.07587 | 4.43593 | 2962 ft | 260 kts | 312° |
| 2026-05-08 03:25 | 52.09058 | 4.41927 | 2812 ft | 260 kts | 341° |
| 2026-05-08 03:25 | 52.10839 | 4.41595 | 2651 ft | 259 kts | 9° |
| 2026-05-08 03:25 | 52.12500 | 4.42645 | 2517 ft | 258 kts | 35° |
| 2026-05-08 03:26 | 52.13902 | 4.44425 | 2361 ft | 258 kts | 42° |
| 2026-05-08 03:26 | 52.15237 | 4.46332 | 2195 ft | 258 kts | 43° |
| 2026-05-08 03:26 | 52.16603 | 4.48297 | 2046 ft | 258 kts | 43° |
| 2026-05-08 03:26 | 52.17916 | 4.50171 | 1981 ft | 248 kts | 42° |
| 2026-05-08 03:27 | 52.19181 | 4.51960 | 1989 ft | 232 kts | 42° |
| 2026-05-08 03:27 | 52.20362 | 4.53626 | 1998 ft | 219 kts | 43° |
| 2026-05-08 03:27 | 52.21506 | 4.55256 | 1987 ft | 218 kts | 46° |
| 2026-05-08 03:27 | 52.22457 | 4.57172 | 1994 ft | 217 kts | 59° |
| 2026-05-08 03:28 | 52.23249 | 4.59262 | 1978 ft | 211 kts | 59° |
| 2026-05-08 03:28 | 52.23986 | 4.61167 | 1868 ft | 188 kts | 59° |
| 2026-05-08 03:28 | 52.24659 | 4.62866 | 1613 ft | 172 kts | 59° |
| 2026-05-08 03:28 | 52.25280 | 4.64454 | 1376 ft | 157 kts | 60° |
| 2026-05-08 03:29 | 52.25838 | 4.65889 | 1137 ft | 143 kts | 60° |
| 2026-05-08 03:29 | 52.26364 | 4.67240 | 960 ft | 140 kts | 60° |
| 2026-05-08 03:29 | 52.26877 | 4.68560 | 771 ft | 139 kts | 60° |
| 2026-05-08 03:29 | 52.27394 | 4.69889 | 605 ft | 137 kts | 60° |
| 2026-05-08 03:30 | 52.28426 | 4.72476 | 222 ft | 135 kts | 59° |
| 2026-05-08 03:30 | 52.29242 | 4.74598 | 26 ft | 118 kts | 57° |
| 2026-05-08 03:31 | 52.29757 | 4.75922 | 18 ft | 38 kts | 58° |
| 2026-05-08 03:31 | 52.29960 | 4.76434 | 17 ft | 13 kts | 48° |
| 2026-05-08 03:32 | 52.30021 | 4.76525 | 19 ft | 11 kts | 35° |
| 2026-05-08 03:32 | 52.30092 | 4.76590 | 19 ft | 12 kts | 28° |
| 2026-05-08 03:32 | 52.30163 | 4.76654 | 20 ft | 11 kts | 28° |
| 2026-05-08 03:32 | 52.30240 | 4.76718 | 19 ft | 14 kts | 27° |
| 2026-05-08 03:33 | 52.30318 | 4.76838 | 14 ft | 16 kts | 58° |
| 2026-05-08 03:33 | 52.30377 | 4.76989 | 14 ft | 13 kts | 58° |
| 2026-05-08 03:33 | 52.30405 | 4.77033 | 12 ft | 7 kts | 27° |
| 2026-05-08 03:33 | 52.30457 | 4.77028 | 10 ft | 9 kts | 348° |
| 2026-05-08 03:34 | 52.30508 | 4.77071 | 10 ft | 8 kts | 35° |
| 2026-05-08 03:34 | 52.30563 | 4.77075 | 11 ft | 9 kts | 337° |
| 2026-05-08 03:34 | 52.30621 | 4.77015 | 9 ft | 10 kts | 327° |
| 2026-05-08 03:34 | 52.30655 | 4.76963 | 7 ft | 0 kts | 308° |
| 2026-05-08 03:35 | 52.30668 | 4.76944 | 6 ft | 4 kts | 327° |
| 2026-05-08 03:35 | 52.30708 | 4.76937 | 5 ft | 7 kts | 3° |
| 2026-05-08 03:35 | 52.30716 | 4.76938 | 4 ft | 0 kts | 4° |